createdAt,value
2022-08-05T00:00:16.116Z,5.10
2022-08-05T00:02:51.577Z,4.70
2022-08-05T00:05:27.232Z,5.00
2022-08-05T00:08:32.530Z,5.05
2022-08-05T00:11:00.833Z,5.53
2022-08-05T00:13:38.128Z,5.85
2022-08-05T00:16:08.444Z,5.47
2022-08-05T00:18:38.158Z,5.47
2022-08-05T00:21:08.465Z,5.45
2022-08-05T00:23:46.102Z,5.75
2022-08-05T00:28:50.924Z,5.63
2022-08-05T00:31:53.657Z,5.60
2022-08-05T00:34:54.549Z,5.82
2022-08-05T00:37:10.805Z,5.53
2022-08-05T00:39:57.429Z,4.85
2022-08-05T00:42:32.978Z,5.18
2022-08-05T00:45:01.537Z,5.50
2022-08-05T00:47:49.184Z,5.85
2022-08-05T00:50:20.869Z,5.07
2022-08-05T00:52:49.057Z,5.13
2022-08-05T00:55:17.009Z,5.53
2022-08-05T00:57:55.308Z,5.20
2022-08-05T01:00:26.031Z,5.28
2022-08-05T01:02:54.076Z,5.32
2022-08-05T01:05:23.579Z,5.40
2022-08-05T01:08:41.885Z,5.60
2022-08-05T01:10:51.549Z,5.70
2022-08-05T01:13:27.385Z,5.82
2022-08-05T01:16:21.078Z,6.75
2022-08-05T01:19:00.775Z,6.32
2022-08-05T01:21:53.801Z,6.57
2022-08-05T01:24:36.718Z,6.68
2022-08-05T01:27:24.340Z,6.80
2022-08-05T01:29:57.169Z,7.28
2022-08-05T01:32:29.105Z,7.88
2022-08-05T01:35:00.488Z,7.45
2022-08-05T01:37:36.605Z,7.38
2022-08-05T01:40:10.176Z,7.50
2022-08-05T01:42:40.868Z,7.15
2022-08-05T01:45:11.777Z,7.15
2022-08-05T01:47:46.383Z,7.50
2022-08-05T01:50:19.390Z,7.45
2022-08-05T01:53:00.940Z,7.88
2022-08-05T01:55:36.232Z,7.28
2022-08-05T01:58:29.640Z,7.38
2022-08-05T02:00:59.229Z,6.05
2022-08-05T02:03:34.089Z,6.43
2022-08-05T02:06:24.252Z,5.75
2022-08-05T02:08:58.639Z,5.95
2022-08-05T02:11:33.644Z,5.88
2022-08-05T02:14:12.467Z,6.45
2022-08-05T02:16:52.822Z,5.70
2022-08-05T02:19:34.153Z,5.60
2022-08-05T02:22:10.845Z,5.65
2022-08-05T02:25:00.138Z,5.50
2022-08-05T02:27:57.932Z,4.20
2022-08-05T02:30:18.222Z,3.60
2022-08-05T02:32:51.332Z,3.50
2022-08-05T02:35:28.138Z,3.80
2022-08-05T02:38:02.956Z,3.40
2022-08-05T02:40:32.516Z,3.38
2022-08-05T02:43:02.391Z,3.58
2022-08-05T02:45:51.510Z,4.25
2022-08-05T02:48:29.347Z,4.15
2022-08-05T02:51:00.352Z,4.30
2022-08-05T02:53:35.985Z,3.97
2022-08-05T02:56:09.287Z,3.97
2022-08-05T02:58:38.277Z,4.47
2022-08-05T03:01:15.784Z,6.07
2022-08-05T03:04:02.113Z,7.35
2022-08-05T03:06:54.660Z,7.37
2022-08-05T03:09:27.095Z,7.60
2022-08-05T03:12:06.781Z,9.77
2022-08-05T03:14:45.617Z,8.93
2022-08-05T03:17:14.137Z,7.38
2022-08-05T03:19:45.780Z,7.45
2022-08-05T03:22:19.007Z,7.55
2022-08-05T03:25:11.551Z,7.85
2022-08-05T03:27:59.092Z,8.45
2022-08-05T03:30:33.776Z,9.30
2022-08-05T03:33:02.881Z,9.35
2022-08-05T03:35:33.682Z,10.30
2022-08-05T03:38:02.527Z,7.55
2022-08-05T03:40:31.972Z,7.85
2022-08-05T03:43:15.763Z,7.85
2022-08-05T03:45:57.140Z,8.15
2022-08-05T03:48:27.146Z,8.77
2022-08-05T03:52:37.264Z,8.90
2022-08-05T03:55:50.441Z,8.98
2022-08-05T03:56:48.073Z,9.60
2022-08-05T03:59:22.614Z,9.85
2022-08-05T04:01:58.993Z,9.80
2022-08-05T04:04:29.084Z,9.63
2022-08-05T04:07:00.187Z,10.18
2022-08-05T04:09:29.146Z,10.40
2022-08-05T04:11:57.464Z,10.20
2022-08-05T04:14:29.962Z,10.70
2022-08-05T04:16:59.749Z,10.48
2022-08-05T04:19:29.388Z,10.45
2022-08-05T04:22:08.930Z,11.80
2022-08-05T04:24:43.833Z,11.57
2022-08-05T04:27:13.087Z,11.27
2022-08-05T04:29:41.534Z,11.65
2022-08-05T04:32:10.923Z,11.20
2022-08-05T04:34:42.847Z,11.27
2022-08-05T04:37:12.773Z,10.70
2022-08-05T04:39:40.861Z,10.93
2022-08-05T04:42:09.744Z,11.20
2022-08-05T04:44:37.560Z,11.00
2022-08-05T04:47:09.608Z,12.15
2022-08-05T04:50:02.792Z,11.20
2022-08-05T04:52:28.855Z,11.57
2022-08-05T04:54:57.034Z,11.60
2022-08-05T04:57:28.505Z,11.63
2022-08-05T04:59:58.523Z,12.77
2022-08-05T05:02:37.045Z,13.23
2022-08-05T05:05:16.617Z,12.55
2022-08-05T05:08:01.613Z,12.65
2022-08-05T05:10:30.319Z,12.57
2022-08-05T05:12:58.468Z,12.07
2022-08-05T05:15:56.211Z,12.30
2022-08-05T05:18:31.601Z,12.18
2022-08-05T05:21:01.685Z,12.43
2022-08-05T05:24:02.126Z,11.75
2022-08-05T05:26:18.910Z,12.98
2022-08-05T05:28:46.921Z,12.90
2022-08-05T05:31:14.957Z,14.27
2022-08-05T05:33:59.632Z,13.32
2022-08-05T05:36:30.096Z,13.73
2022-08-05T05:38:59.910Z,14.23
2022-08-05T05:41:40.066Z,13.88
2022-08-05T05:44:35.693Z,15.13
2022-08-05T05:46:57.874Z,14.82
2022-08-05T05:49:26.115Z,15.27
2022-08-05T05:51:54.128Z,16.10
2022-08-05T05:54:50.558Z,17.33
2022-08-05T05:57:13.683Z,24.05
2022-08-05T05:59:51.417Z,26.15
2022-08-05T06:02:32.502Z,26.15
2022-08-05T06:05:10.534Z,24.08
2022-08-05T06:08:01.182Z,24.75
2022-08-05T06:10:31.669Z,25.98
2022-08-05T06:13:04.985Z,25.63
2022-08-05T06:16:28.660Z,25.52
2022-08-05T06:18:21.864Z,25.95
2022-08-05T06:20:59.338Z,25.90
2022-08-05T06:23:27.502Z,25.80
2022-08-05T06:26:21.349Z,26.55
2022-08-05T06:28:52.053Z,28.73
2022-08-05T06:31:22.278Z,28.23
2022-08-05T06:34:07.406Z,29.40
2022-08-05T06:36:56.871Z,29.67
2022-08-05T06:39:27.733Z,29.45
2022-08-05T06:41:58.851Z,29.52
2022-08-05T06:44:28.092Z,32.45
2022-08-05T06:46:56.500Z,33.70
2022-08-05T06:50:02.084Z,30.58
2022-08-05T06:52:36.412Z,29.10
2022-08-05T06:55:00.643Z,28.92
2022-08-05T06:57:57.692Z,29.40
2022-08-05T07:00:24.557Z,29.05
2022-08-05T07:02:53.637Z,30.13
2022-08-05T07:05:37.000Z,30.58
2022-08-05T07:08:05.996Z,29.20
2022-08-05T07:10:39.203Z,28.95
2022-08-05T07:13:58.457Z,27.50
2022-08-05T07:17:58.332Z,24.67
2022-08-05T07:20:30.978Z,24.38
2022-08-05T07:22:36.034Z,24.75
2022-08-05T07:25:23.802Z,24.02
2022-08-05T07:27:58.374Z,25.63
2022-08-05T07:30:33.601Z,28.35
2022-08-05T07:33:05.203Z,29.30
2022-08-05T07:36:01.938Z,29.05
2022-08-05T07:38:33.008Z,29.63
2022-08-05T07:42:07.099Z,29.60
2022-08-05T07:43:55.128Z,29.63
2022-08-05T07:46:26.680Z,30.92
2022-08-05T07:49:01.835Z,27.15
2022-08-05T07:51:40.882Z,26.40
2022-08-05T07:54:18.753Z,25.30
2022-08-05T07:57:01.842Z,25.20
2022-08-05T07:59:39.840Z,24.55
2022-08-05T08:02:15.724Z,23.58
2022-08-05T08:04:47.293Z,23.05
2022-08-05T08:07:15.547Z,25.08
2022-08-05T08:09:43.786Z,28.77
2022-08-05T08:12:36.825Z,30.42
2022-08-05T08:15:02.584Z,27.90
2022-08-05T08:17:33.216Z,28.38
2022-08-05T08:20:23.058Z,26.38
2022-08-05T08:22:55.621Z,25.55
2022-08-05T08:25:26.723Z,26.13
2022-08-05T08:28:18.129Z,30.15
2022-08-05T08:30:49.962Z,33.00
2022-08-05T08:33:19.875Z,34.95
2022-08-05T08:35:52.402Z,36.03
2022-08-05T08:38:35.362Z,36.40
2022-08-05T08:41:07.453Z,37.28
2022-08-05T08:45:17.760Z,38.03
2022-08-05T08:46:28.285Z,38.25
2022-08-05T08:50:03.772Z,36.60
2022-08-05T08:52:04.359Z,36.30
2022-08-05T08:54:37.964Z,34.35
2022-08-05T08:57:13.329Z,35.22
2022-08-05T08:59:47.339Z,34.45
2022-08-05T09:02:20.639Z,33.72
2022-08-05T09:05:16.899Z,35.28
2022-08-05T09:07:39.889Z,30.40
2022-08-05T09:10:27.827Z,30.42
2022-08-05T09:13:04.525Z,25.58
2022-08-05T09:15:36.931Z,24.50
2022-08-05T09:18:08.831Z,21.42
2022-08-05T09:20:38.536Z,20.48
2022-08-05T09:23:10.482Z,20.40
2022-08-05T09:26:03.325Z,20.65
2022-08-05T09:28:33.765Z,23.07
2022-08-05T09:31:22.925Z,20.80
2022-08-05T09:33:56.235Z,23.20
2022-08-05T09:36:38.425Z,22.42
2022-08-05T09:39:24.481Z,23.67
2022-08-05T09:42:08.419Z,21.00
2022-08-05T09:44:37.948Z,20.90
2022-08-05T09:47:12.556Z,20.05
2022-08-05T09:50:00.450Z,20.27
2022-08-05T09:52:32.879Z,19.45
2022-08-05T09:55:57.696Z,21.30
2022-08-05T09:57:54.657Z,21.13
2022-08-05T10:00:30.629Z,19.08
2022-08-05T10:02:59.114Z,18.25
2022-08-05T10:05:32.780Z,18.15
2022-08-05T10:08:34.947Z,17.10
2022-08-05T10:10:54.235Z,15.50
2022-08-05T10:13:45.755Z,12.98
2022-08-05T10:16:37.711Z,14.75
2022-08-05T10:19:11.795Z,14.52
2022-08-05T10:21:41.167Z,16.48
2022-08-05T10:24:13.674Z,16.60
2022-08-05T10:26:51.298Z,17.30
2022-08-05T10:29:23.696Z,18.30
2022-08-05T10:32:54.505Z,17.05
2022-08-05T10:35:01.174Z,19.00
2022-08-05T10:37:40.271Z,16.70
2022-08-05T10:40:28.250Z,14.13
2022-08-05T10:43:02.327Z,11.75
2022-08-05T10:45:41.707Z,10.98
2022-08-05T10:48:39.572Z,8.43
2022-08-05T10:51:29.120Z,7.30
2022-08-05T10:54:01.067Z,6.93
2022-08-05T10:56:45.198Z,6.95
2022-08-05T11:00:02.840Z,6.22
2022-08-05T11:02:14.546Z,5.32
2022-08-05T11:05:00.255Z,5.10
2022-08-05T11:07:33.065Z,4.93
2022-08-05T11:10:27.689Z,4.50
2022-08-05T11:12:59.417Z,3.97
2022-08-05T11:15:44.047Z,4.20
2022-08-05T11:18:30.160Z,4.32
2022-08-05T11:21:02.560Z,4.43
2022-08-05T11:24:05.378Z,3.75
2022-08-05T11:26:33.522Z,4.00
2022-08-05T11:29:11.358Z,3.38
2022-08-05T11:31:58.023Z,4.18
2022-08-05T11:34:50.766Z,3.40
2022-08-05T11:38:28.065Z,3.00
2022-08-05T11:41:13.913Z,3.35
2022-08-05T11:44:06.620Z,3.03
2022-08-05T11:46:58.620Z,2.97
2022-08-05T11:49:27.641Z,2.83
2022-08-05T11:51:57.687Z,2.70
2022-08-05T11:54:33.271Z,2.45
2022-08-05T11:57:08.407Z,2.60
2022-08-05T11:59:51.197Z,2.42
2022-08-05T12:02:31.793Z,2.30
2022-08-05T12:05:07.203Z,1.98
2022-08-05T12:08:10.384Z,2.00
2022-08-05T12:10:43.442Z,2.55
2022-08-05T12:13:16.319Z,2.28
2022-08-05T12:15:45.028Z,1.95
2022-08-05T12:18:18.841Z,2.33
2022-08-05T12:20:48.474Z,2.20
2022-08-05T12:23:17.262Z,2.08
2022-08-05T12:25:52.480Z,2.00
2022-08-05T12:28:37.889Z,2.03
2022-08-05T12:31:06.563Z,1.98
2022-08-05T12:33:38.706Z,1.75
2022-08-05T12:36:08.343Z,2.30
2022-08-05T12:38:39.576Z,3.13
2022-08-05T12:41:13.423Z,2.10
2022-08-05T12:43:53.560Z,1.90
2022-08-05T12:46:28.831Z,1.67
2022-08-05T12:49:00.645Z,1.70
2022-08-05T12:52:12.956Z,1.75
2022-08-05T12:54:26.657Z,2.00
2022-08-05T12:56:56.424Z,1.50
2022-08-05T12:59:46.900Z,1.80
2022-08-05T13:02:16.758Z,1.75
2022-08-05T13:04:52.619Z,1.77
2022-08-05T13:07:47.760Z,1.58
2022-08-05T13:10:14.481Z,1.88
2022-08-05T13:12:51.163Z,1.50
2022-08-05T13:15:41.148Z,1.67
2022-08-05T13:18:10.513Z,1.80
2022-08-05T13:20:40.695Z,1.67
2022-08-05T13:23:08.611Z,1.50
2022-08-05T13:25:52.603Z,1.83
2022-08-05T13:28:24.532Z,1.88
2022-08-05T13:30:53.376Z,1.80
2022-08-05T13:34:23.605Z,1.70
2022-08-05T13:36:14.573Z,1.70
2022-08-05T13:38:43.235Z,1.80
2022-08-05T13:41:11.978Z,1.70
2022-08-05T13:43:44.988Z,2.03
2022-08-05T13:47:02.035Z,2.00
2022-08-05T13:49:11.705Z,2.10
2022-08-05T13:51:46.462Z,2.13
2022-08-05T13:54:16.423Z,2.20
2022-08-05T13:56:51.610Z,2.35
2022-08-05T13:59:24.308Z,2.08
2022-08-05T14:01:58.414Z,2.20
2022-08-05T14:04:49.844Z,2.22
2022-08-05T14:07:26.098Z,2.30
2022-08-05T14:10:10.503Z,2.47
2022-08-05T14:12:38.604Z,2.40
2022-08-05T14:16:08.774Z,2.33
2022-08-05T14:17:59.430Z,2.45
2022-08-05T14:20:27.747Z,2.65
2022-08-05T14:22:56.924Z,3.05
2022-08-05T14:25:28.441Z,2.63
2022-08-05T14:27:58.544Z,2.72
2022-08-05T14:30:28.122Z,3.03
2022-08-05T14:32:56.951Z,2.90
2022-08-05T14:35:37.464Z,3.25
2022-08-05T14:38:31.935Z,3.33
2022-08-05T14:41:06.432Z,3.40
2022-08-05T14:44:01.511Z,3.38
2022-08-05T14:46:28.698Z,3.40
2022-08-05T14:48:59.485Z,3.08
2022-08-05T14:51:31.852Z,3.10
2022-08-05T14:54:27.500Z,3.15
2022-08-05T14:56:49.448Z,3.20
2022-08-05T14:59:21.307Z,3.30
2022-08-05T15:01:49.964Z,2.65
2022-08-05T15:04:20.451Z,2.90
2022-08-05T15:06:50.102Z,2.72
2022-08-05T15:09:52.194Z,2.83
2022-08-05T15:12:09.506Z,3.17
2022-08-05T15:14:50.274Z,3.20
2022-08-05T15:17:44.823Z,3.13
2022-08-05T15:20:19.038Z,2.60
2022-08-05T15:22:52.171Z,2.63
2022-08-05T15:25:40.898Z,2.40
2022-08-05T15:28:13.361Z,2.08
2022-08-05T15:30:43.349Z,2.00
2022-08-05T15:33:12.114Z,2.20
2022-08-05T15:35:45.286Z,2.05
2022-08-05T15:38:34.146Z,2.00
2022-08-05T15:41:23.890Z,1.67
2022-08-05T15:43:51.059Z,1.92
2022-08-05T15:46:20.461Z,1.67
2022-08-05T15:48:58.888Z,1.80
2022-08-05T15:52:12.440Z,1.98
2022-08-05T15:54:34.542Z,2.00
2022-08-05T15:57:07.292Z,2.20
2022-08-05T15:59:36.214Z,2.08
2022-08-05T16:02:09.407Z,2.00
2022-08-05T16:04:43.060Z,2.20
2022-08-05T16:07:12.113Z,2.25
2022-08-05T16:09:42.083Z,2.10
2022-08-05T16:12:12.810Z,1.90
2022-08-05T16:14:40.648Z,2.10
2022-08-05T16:17:09.480Z,2.10
2022-08-05T16:20:04.313Z,1.90
2022-08-05T16:22:27.725Z,2.00
2022-08-05T16:25:09.602Z,2.10
2022-08-05T16:28:00.512Z,2.13
2022-08-05T16:30:28.802Z,2.10
2022-08-05T16:32:57.023Z,1.95
2022-08-05T16:35:28.389Z,1.83
2022-08-05T16:38:02.277Z,2.08
2022-08-05T16:40:51.943Z,2.13
2022-08-05T16:43:26.301Z,2.33
2022-08-05T16:46:06.137Z,1.90
2022-08-05T16:48:40.338Z,2.00
2022-08-05T16:51:09.287Z,1.92
2022-08-05T16:54:04.738Z,2.00
2022-08-05T16:56:29.090Z,1.95
2022-08-05T16:59:00.802Z,1.80
2022-08-05T17:01:53.134Z,1.70
2022-08-05T17:04:26.624Z,2.22
2022-08-05T17:06:55.590Z,1.70
2022-08-05T17:09:24.848Z,1.58
2022-08-05T17:11:59.336Z,1.70
2022-08-05T17:14:36.756Z,1.55
2022-08-05T17:17:09.328Z,1.60
2022-08-05T17:19:45.704Z,1.60
2022-08-05T17:22:24.561Z,1.30
2022-08-05T17:24:57.541Z,1.38
2022-08-05T17:27:33.940Z,1.30
2022-08-05T17:30:11.786Z,1.50
2022-08-05T17:32:42.052Z,1.10
2022-08-05T17:35:12.095Z,1.20
2022-08-05T17:37:45.355Z,1.17
2022-08-05T17:40:17.196Z,1.38
2022-08-05T17:42:50.487Z,1.48
2022-08-05T17:45:22.915Z,1.27
2022-08-05T17:47:54.973Z,1.10
2022-08-05T17:50:29.005Z,1.45
2022-08-05T17:53:02.405Z,1.30
2022-08-05T17:55:38.021Z,1.30
2022-08-05T17:58:10.895Z,1.00
2022-08-05T18:00:45.385Z,0.90
2022-08-05T18:03:56.498Z,0.85
2022-08-05T18:06:12.236Z,3.63
2022-08-05T18:08:45.848Z,1.20
2022-08-05T18:11:23.702Z,0.70
2022-08-05T18:13:54.530Z,2.17
2022-08-05T18:16:24.741Z,1.20
2022-08-05T18:18:52.597Z,1.30
2022-08-05T18:21:22.738Z,4.05
2022-08-05T18:23:54.304Z,0.82
2022-08-05T18:26:28.947Z,0.82
2022-08-05T18:31:33.016Z,0.82
2022-08-05T18:34:03.691Z,1.10
2022-08-05T18:36:35.376Z,1.30
2022-08-05T18:39:03.800Z,0.80
2022-08-05T18:41:58.149Z,1.20
2022-08-05T18:44:35.151Z,0.82
2022-08-05T18:47:16.626Z,2.13
2022-08-05T18:50:02.097Z,1.02
2022-08-05T18:52:35.942Z,0.90
2022-08-05T18:55:10.367Z,0.77
2022-08-05T18:57:43.660Z,1.02
2022-08-05T19:00:28.477Z,0.80
2022-08-05T19:03:04.125Z,1.00
2022-08-05T19:06:12.384Z,0.80
2022-08-05T19:08:22.422Z,0.90
2022-08-05T19:11:02.874Z,1.00
2022-08-05T19:13:35.571Z,0.75
2022-08-05T19:16:04.801Z,0.90
2022-08-05T19:18:56.638Z,0.82
2022-08-05T19:21:27.609Z,0.80
2022-08-05T19:24:07.431Z,0.88
2022-08-05T19:26:54.239Z,0.98
2022-08-05T19:29:26.628Z,0.80
2022-08-05T19:32:03.591Z,0.90
2022-08-05T19:34:34.594Z,0.95
2022-08-05T19:37:03.117Z,0.90
2022-08-05T19:39:32.003Z,0.80
2022-08-05T19:42:15.335Z,0.95
2022-08-05T19:44:44.959Z,1.20
2022-08-05T19:47:16.116Z,0.90
2022-08-05T19:49:47.960Z,0.90
2022-08-05T19:52:31.053Z,1.05
2022-08-05T19:55:07.220Z,1.10
2022-08-05T19:58:06.817Z,1.10
2022-08-05T20:00:37.492Z,1.00
2022-08-05T20:03:09.133Z,1.02
2022-08-05T20:05:43.182Z,1.10
2022-08-05T20:08:11.514Z,0.80
2022-08-05T20:10:39.533Z,1.00
2022-08-05T20:13:12.132Z,0.90
2022-08-05T20:15:51.887Z,1.10
2022-08-05T20:18:33.829Z,0.90
2022-08-05T20:21:06.904Z,1.10
2022-08-05T20:23:40.502Z,1.35
2022-08-05T20:26:19.266Z,0.90
2022-08-05T20:28:48.573Z,1.10
2022-08-05T20:31:17.072Z,7.47
2022-08-05T20:33:45.491Z,5.47
2022-08-05T20:36:16.275Z,1.73
2022-08-05T20:38:53.553Z,1.33
2022-08-05T20:41:24.119Z,1.00
2022-08-05T20:43:58.846Z,1.33
2022-08-05T20:46:30.753Z,1.20
2022-08-05T20:48:59.619Z,1.20
2022-08-05T20:51:28.885Z,1.30
2022-08-05T20:53:57.265Z,1.20
2022-08-05T20:56:41.924Z,1.10
2022-08-05T20:59:14.052Z,1.05
2022-08-05T21:01:47.567Z,1.20
2022-08-05T21:04:18.571Z,1.10
2022-08-05T21:06:47.864Z,1.38
2022-08-05T21:09:16.054Z,1.52
2022-08-05T21:12:10.353Z,1.40
2022-08-05T21:14:35.011Z,1.20
2022-08-05T21:17:05.253Z,1.50
2022-08-05T21:19:47.311Z,1.52
2022-08-05T21:22:21.641Z,1.60
2022-08-05T21:24:51.564Z,1.40
2022-08-05T21:27:25.327Z,1.40
2022-08-05T21:29:55.913Z,1.27
2022-08-05T21:32:26.676Z,1.23
2022-08-05T21:35:16.806Z,1.30
2022-08-05T21:37:47.468Z,1.50
2022-08-05T21:40:21.709Z,1.25
2022-08-05T21:42:51.615Z,1.48
2022-08-05T21:45:24.989Z,1.27
2022-08-05T21:48:08.490Z,1.60
2022-08-05T21:50:36.712Z,1.70
2022-08-05T21:53:17.394Z,1.50
2022-08-05T21:56:06.334Z,1.15
2022-08-05T21:58:33.891Z,1.40
2022-08-05T22:01:01.980Z,1.40
2022-08-05T22:03:52.216Z,1.20
2022-08-05T22:06:23.034Z,1.67
2022-08-05T22:09:13.762Z,1.50
2022-08-05T22:11:46.718Z,1.60
2022-08-05T22:14:34.479Z,1.50
2022-08-05T22:17:06.764Z,1.30
2022-08-05T22:20:00.697Z,1.33
2022-08-05T22:22:27.150Z,1.42
2022-08-05T22:25:21.137Z,1.42
2022-08-05T22:28:08.677Z,1.60
2022-08-05T22:30:43.961Z,1.40
2022-08-05T22:33:55.867Z,1.15
2022-08-05T22:36:09.665Z,1.30
2022-08-05T22:38:38.280Z,1.38
2022-08-05T22:41:11.965Z,1.20
2022-08-05T22:43:42.985Z,1.40
2022-08-05T22:46:13.744Z,1.33
2022-08-05T22:48:51.676Z,1.42
2022-08-05T22:51:22.715Z,1.50
2022-08-05T22:53:51.018Z,1.40
2022-08-05T22:56:29.706Z,1.35
2022-08-05T22:59:00.051Z,1.50
2022-08-05T23:02:03.963Z,1.75
2022-08-05T23:04:19.585Z,1.80
2022-08-05T23:06:47.768Z,1.20
2022-08-05T23:09:53.501Z,1.40
2022-08-05T23:12:05.975Z,1.48
2022-08-05T23:14:34.029Z,1.50
2022-08-05T23:17:24.245Z,1.55
2022-08-05T23:20:02.424Z,1.60
2022-08-05T23:22:31.106Z,1.30
2022-08-05T23:24:59.258Z,1.50
2022-08-05T23:27:31.448Z,1.58
2022-08-05T23:30:11.503Z,1.40
2022-08-05T23:32:45.166Z,1.60
2022-08-05T23:35:13.419Z,1.40
2022-08-05T23:37:41.437Z,1.65
2022-08-05T23:40:12.008Z,1.60
2022-08-05T23:42:41.256Z,1.58
2022-08-05T23:45:15.906Z,1.75
2022-08-05T23:47:48.281Z,1.60
2022-08-05T23:50:17.021Z,1.50
2022-08-05T23:52:50.000Z,1.70
2022-08-05T23:55:19.845Z,1.60
2022-08-05T23:57:52.734Z,1.70
